createdAt,value
2022-08-23T00:02:04.013Z,18.76
2022-08-23T00:04:13.179Z,18.77
2022-08-23T00:06:17.411Z,18.76
2022-08-23T00:08:21.581Z,18.75
2022-08-23T00:10:24.914Z,18.75
2022-08-23T00:12:28.242Z,18.76
2022-08-23T00:14:35.830Z,18.78
2022-08-23T00:16:39.516Z,18.80
2022-08-23T00:18:47.697Z,18.81
2022-08-23T00:20:52.729Z,18.82
2022-08-23T00:22:56.304Z,18.82
2022-08-23T00:24:59.657Z,18.82
2022-08-23T00:27:07.451Z,18.82
2022-08-23T00:29:10.900Z,18.81
2022-08-23T00:31:14.249Z,18.76
2022-08-23T00:33:17.797Z,18.76
2022-08-23T00:35:26.948Z,18.78
2022-08-23T00:37:32.538Z,18.82
2022-08-23T00:39:36.084Z,18.84
2022-08-23T00:41:39.731Z,18.89
2022-08-23T00:44:01.107Z,18.91
2022-08-23T00:46:29.642Z,18.95
2022-08-23T00:48:33.996Z,18.97
2022-08-23T00:50:45.088Z,18.98
2022-08-23T00:52:54.332Z,19.00
2022-08-23T00:54:58.421Z,19.00
2022-08-23T00:57:05.798Z,19.02
2022-08-23T00:59:09.034Z,19.02
2022-08-23T01:01:12.531Z,19.03
2022-08-23T01:03:21.269Z,19.04
2022-08-23T01:05:29.028Z,19.04
2022-08-23T01:07:49.000Z,19.04
2022-08-23T01:09:54.838Z,19.05
2022-08-23T01:12:04.670Z,19.04
2022-08-23T01:14:13.351Z,19.03
2022-08-23T01:16:22.778Z,19.03
2022-08-23T01:18:29.747Z,19.02
2022-08-23T01:20:43.995Z,19.03
2022-08-23T01:22:56.548Z,19.01
2022-08-23T01:25:07.382Z,19.01
2022-08-23T01:27:17.632Z,19.00
2022-08-23T01:29:20.879Z,18.98
2022-08-23T01:31:25.576Z,18.96
2022-08-23T01:33:29.090Z,18.93
2022-08-23T01:35:37.974Z,18.91
2022-08-23T01:37:41.955Z,18.89
2022-08-23T01:39:45.440Z,18.86
2022-08-23T01:41:51.482Z,18.84
2022-08-23T01:43:55.280Z,18.80
2022-08-23T01:46:09.690Z,18.76
2022-08-23T01:48:14.760Z,18.73
2022-08-23T01:50:18.236Z,18.70
2022-08-23T01:52:21.675Z,18.64
2022-08-23T01:54:25.416Z,18.59
2022-08-23T01:56:38.816Z,18.53
2022-08-23T01:58:46.484Z,18.48
2022-08-23T02:00:50.016Z,18.42
2022-08-23T02:02:54.373Z,18.37
2022-08-23T02:04:57.836Z,18.32
2022-08-23T02:07:01.548Z,18.27
2022-08-23T02:09:04.694Z,18.22
2022-08-23T02:11:13.771Z,18.18
2022-08-23T02:13:17.244Z,18.16
2022-08-23T02:15:22.095Z,18.15
2022-08-23T02:17:25.571Z,18.14
2022-08-23T02:19:28.818Z,18.13
2022-08-23T02:21:33.122Z,18.14
2022-08-23T02:23:36.343Z,18.14
2022-08-23T02:25:40.418Z,18.13
2022-08-23T02:27:44.281Z,18.13
2022-08-23T02:29:51.668Z,18.11
2022-08-23T02:31:58.620Z,18.10
2022-08-23T02:34:04.005Z,18.12
2022-08-23T02:36:08.547Z,18.10
2022-08-23T02:38:14.071Z,18.11
2022-08-23T02:40:17.526Z,18.09
2022-08-23T02:42:21.235Z,18.08
2022-08-23T02:44:25.676Z,18.07
2022-08-23T02:46:29.519Z,18.05
2022-08-23T02:48:34.765Z,18.04
2022-08-23T02:50:40.246Z,18.02
2022-08-23T02:52:43.458Z,18.00
2022-08-23T02:54:48.866Z,17.98
2022-08-23T02:56:52.884Z,17.96
2022-08-23T02:58:56.421Z,17.95
2022-08-23T03:01:01.083Z,17.93
2022-08-23T03:03:04.909Z,17.90
2022-08-23T03:05:11.198Z,17.88
2022-08-23T03:07:14.620Z,17.86
2022-08-23T03:09:17.975Z,17.86
2022-08-23T03:11:22.855Z,17.84
2022-08-23T03:13:28.346Z,17.81
2022-08-23T03:15:32.298Z,17.80
2022-08-23T03:17:35.720Z,17.77
2022-08-23T03:19:42.763Z,17.74
2022-08-23T03:21:47.537Z,17.71
2022-08-23T03:23:53.353Z,17.68
2022-08-23T03:25:58.674Z,17.63
2022-08-23T03:28:06.320Z,17.62
2022-08-23T03:30:19.272Z,17.63
2022-08-23T03:32:30.675Z,17.59
2022-08-23T03:34:34.735Z,17.59
2022-08-23T03:36:38.364Z,17.59
2022-08-23T03:38:43.423Z,17.58
2022-08-23T03:40:47.268Z,17.58
2022-08-23T03:42:50.868Z,17.58
2022-08-23T03:45:02.227Z,17.57
2022-08-23T03:47:07.224Z,17.55
2022-08-23T03:49:11.366Z,17.53
2022-08-23T03:51:29.378Z,17.52
2022-08-23T03:53:34.214Z,17.50
2022-08-23T03:55:42.488Z,17.49
2022-08-23T03:57:49.928Z,17.49
2022-08-23T03:59:55.488Z,17.48
2022-08-23T04:02:00.259Z,17.48
2022-08-23T04:04:05.392Z,17.46
2022-08-23T04:06:09.783Z,17.44
2022-08-23T04:08:14.008Z,17.44
2022-08-23T04:10:22.177Z,17.44
2022-08-23T04:12:29.941Z,17.44
2022-08-23T04:14:33.548Z,17.45
2022-08-23T04:16:37.899Z,17.44
2022-08-23T04:18:42.166Z,17.42
2022-08-23T04:20:45.622Z,17.41
2022-08-23T04:22:53.037Z,17.39
2022-08-23T04:24:56.909Z,17.39
2022-08-23T04:27:00.377Z,17.38
2022-08-23T04:29:05.335Z,17.37
2022-08-23T04:31:09.215Z,17.38
2022-08-23T04:33:18.201Z,17.37
2022-08-23T04:35:22.810Z,17.37
2022-08-23T04:37:28.189Z,17.35
2022-08-23T04:39:53.946Z,17.36
2022-08-23T04:42:15.688Z,17.35
2022-08-23T04:44:21.961Z,17.35
2022-08-23T04:46:26.824Z,17.36
2022-08-23T04:48:31.783Z,17.35
2022-08-23T04:50:36.155Z,17.35
2022-08-23T04:52:59.824Z,17.35
2022-08-23T04:55:04.758Z,17.34
2022-08-23T04:57:22.954Z,17.33
2022-08-23T04:59:27.730Z,17.32
2022-08-23T05:01:31.177Z,17.30
2022-08-23T05:03:34.867Z,17.30
2022-08-23T05:05:38.692Z,17.28
2022-08-23T05:07:43.248Z,17.28
2022-08-23T05:09:47.408Z,17.27
2022-08-23T05:11:50.947Z,17.27
2022-08-23T05:13:54.766Z,17.27
2022-08-23T05:16:00.417Z,17.27
2022-08-23T05:18:08.286Z,17.25
2022-08-23T05:20:12.824Z,17.23
2022-08-23T05:22:16.163Z,17.22
2022-08-23T05:24:45.360Z,17.21
2022-08-23T05:26:48.863Z,17.23
2022-08-23T05:28:52.480Z,17.22
2022-08-23T05:31:04.246Z,17.24
2022-08-23T05:33:14.362Z,17.25
2022-08-23T05:35:17.843Z,17.25
2022-08-23T05:37:22.606Z,17.26
2022-08-23T05:39:33.007Z,17.28
2022-08-23T05:41:41.765Z,17.30
2022-08-23T05:43:47.568Z,17.32
2022-08-23T05:46:02.522Z,17.35
2022-08-23T05:48:08.764Z,17.37
2022-08-23T05:50:20.007Z,17.38
2022-08-23T05:52:23.499Z,17.38
2022-08-23T05:54:27.558Z,17.38
2022-08-23T05:56:53.788Z,17.39
2022-08-23T05:59:00.018Z,17.41
2022-08-23T06:01:06.651Z,17.42
2022-08-23T06:03:09.994Z,17.45
2022-08-23T06:05:14.019Z,17.46
2022-08-23T06:07:18.407Z,17.48
2022-08-23T06:09:21.941Z,17.50
2022-08-23T06:11:28.473Z,17.51
2022-08-23T06:13:32.996Z,17.53
2022-08-23T06:15:36.554Z,17.55
2022-08-23T06:17:42.138Z,17.57
2022-08-23T06:19:45.986Z,17.59
2022-08-23T06:21:57.993Z,17.63
2022-08-23T06:24:07.370Z,17.66
2022-08-23T06:26:19.499Z,17.68
2022-08-23T06:28:25.620Z,17.68
2022-08-23T06:30:31.691Z,17.69
2022-08-23T06:32:38.138Z,17.70
2022-08-23T06:35:38.320Z,17.71
2022-08-23T06:37:33.329Z,17.73
2022-08-23T06:39:59.782Z,17.74
2022-08-23T06:42:40.212Z,17.75
2022-08-23T06:44:45.509Z,17.76
2022-08-23T06:46:54.274Z,17.78
2022-08-23T06:48:59.704Z,17.81
2022-08-23T06:51:04.779Z,17.84
2022-08-23T06:53:26.697Z,17.92
2022-08-23T06:55:53.244Z,18.00
2022-08-23T06:58:00.405Z,18.12
2022-08-23T07:00:21.965Z,18.26
2022-08-23T07:02:52.428Z,18.43
2022-08-23T07:05:28.408Z,18.64
2022-08-23T07:07:45.987Z,18.80
2022-08-23T07:09:49.925Z,18.89
2022-08-23T07:11:56.177Z,18.93
2022-08-23T07:14:01.093Z,18.93
2022-08-23T07:16:05.353Z,18.90
2022-08-23T07:18:13.541Z,18.82
2022-08-23T07:20:17.581Z,18.74
2022-08-23T07:22:22.024Z,18.67
2022-08-23T07:24:32.735Z,18.59
2022-08-23T07:26:39.468Z,18.51
2022-08-23T07:28:44.348Z,18.50
2022-08-23T07:30:48.084Z,18.49
2022-08-23T07:32:52.154Z,18.53
2022-08-23T07:34:58.465Z,18.58
2022-08-23T07:37:04.374Z,18.63
2022-08-23T07:39:16.316Z,18.67
2022-08-23T07:41:22.261Z,18.71
2022-08-23T07:43:26.185Z,18.74
2022-08-23T07:45:30.545Z,18.76
2022-08-23T07:47:37.399Z,18.78
2022-08-23T07:49:43.014Z,18.80
2022-08-23T07:51:49.897Z,18.79
2022-08-23T07:53:54.730Z,18.76
2022-08-23T07:55:59.081Z,18.75
2022-08-23T07:58:28.252Z,18.71
2022-08-23T08:00:46.665Z,18.68
2022-08-23T08:03:13.875Z,18.65
2022-08-23T08:05:37.702Z,18.63
2022-08-23T08:07:41.634Z,18.64
2022-08-23T08:09:45.433Z,18.66
2022-08-23T08:11:52.508Z,18.72
2022-08-23T08:14:04.488Z,18.77
2022-08-23T08:16:09.793Z,18.87
2022-08-23T08:18:17.220Z,19.04
2022-08-23T08:20:39.326Z,19.27
2022-08-23T08:23:08.633Z,19.51
2022-08-23T08:25:12.703Z,19.67
2022-08-23T08:27:17.464Z,19.72
2022-08-23T08:29:22.671Z,19.72
2022-08-23T08:31:28.774Z,19.76
2022-08-23T08:33:34.403Z,19.86
2022-08-23T08:35:38.797Z,20.03
2022-08-23T08:37:43.073Z,20.22
2022-08-23T08:39:46.801Z,20.39
2022-08-23T08:42:05.473Z,20.53
2022-08-23T08:44:24.275Z,20.66
2022-08-23T08:46:46.470Z,20.66
2022-08-23T08:48:55.812Z,20.74
2022-08-23T08:51:05.085Z,20.79
2022-08-23T08:53:13.758Z,20.90
2022-08-23T08:55:43.039Z,20.99
2022-08-23T08:57:49.380Z,21.10
2022-08-23T09:00:00.521Z,21.22
2022-08-23T09:02:32.041Z,21.37
2022-08-23T09:04:34.982Z,21.43
2022-08-23T09:06:51.217Z,21.38
2022-08-23T09:09:17.333Z,21.38
2022-08-23T09:11:35.260Z,21.36
2022-08-23T09:14:07.622Z,21.42
2022-08-23T09:16:23.876Z,21.42
2022-08-23T09:18:33.566Z,21.34
2022-08-23T09:20:38.947Z,21.26
2022-08-23T09:22:46.027Z,21.20
2022-08-23T09:25:00.111Z,21.05
2022-08-23T09:27:12.385Z,21.04
2022-08-23T09:29:23.699Z,21.06
2022-08-23T09:31:42.201Z,21.08
2022-08-23T09:33:48.253Z,21.09
2022-08-23T09:36:20.049Z,21.11
2022-08-23T09:38:30.184Z,21.18
2022-08-23T09:40:42.700Z,21.29
2022-08-23T09:43:05.425Z,21.45
2022-08-23T09:45:29.782Z,21.55
2022-08-23T09:47:44.348Z,21.59
2022-08-23T09:49:52.683Z,21.54
2022-08-23T09:52:01.044Z,21.54
2022-08-23T09:54:09.495Z,21.50
2022-08-23T09:56:17.826Z,21.51
2022-08-23T10:00:34.618Z,21.55
2022-08-23T10:02:38.434Z,21.51
2022-08-23T10:05:00.185Z,21.42
2022-08-23T10:07:25.031Z,21.38
2022-08-23T10:09:33.249Z,21.37
2022-08-23T10:11:48.436Z,21.27
2022-08-23T10:13:52.839Z,21.22
2022-08-23T10:16:06.044Z,21.28
2022-08-23T10:18:27.998Z,21.36
2022-08-23T10:20:42.449Z,21.46
2022-08-23T10:22:53.140Z,21.62
2022-08-23T10:25:18.241Z,21.83
2022-08-23T10:27:49.311Z,22.03
2022-08-23T10:30:02.019Z,22.31
2022-08-23T10:32:18.759Z,22.53
2022-08-23T10:34:46.008Z,22.66
2022-08-23T10:37:10.106Z,22.86
2022-08-23T10:39:21.751Z,23.19
2022-08-23T10:41:40.468Z,23.29
2022-08-23T10:43:52.252Z,23.23
2022-08-23T10:46:01.970Z,23.13
2022-08-23T10:48:27.133Z,23.06
2022-08-23T10:50:41.109Z,22.86
2022-08-23T10:52:52.997Z,22.63
2022-08-23T10:55:06.598Z,22.39
2022-08-23T10:57:16.508Z,22.20
2022-08-23T10:59:24.741Z,22.09
2022-08-23T11:01:36.887Z,21.97
2022-08-23T11:03:46.404Z,21.91
2022-08-23T11:06:22.795Z,21.90
2022-08-23T11:08:36.913Z,21.92
2022-08-23T11:10:55.667Z,22.00
2022-08-23T11:13:21.097Z,21.98
2022-08-23T11:15:34.463Z,21.94
2022-08-23T11:17:56.326Z,21.80
2022-08-23T11:20:03.304Z,21.64
2022-08-23T11:22:18.735Z,21.50
2022-08-23T11:24:52.270Z,21.34
2022-08-23T11:27:08.113Z,21.26
2022-08-23T11:29:31.244Z,21.15
2022-08-23T11:32:00.828Z,21.13
2022-08-23T11:34:11.139Z,21.13
2022-08-23T11:36:21.783Z,21.10
2022-08-23T11:39:05.442Z,21.10
2022-08-23T11:41:25.156Z,21.25
2022-08-23T11:43:34.419Z,21.33
2022-08-23T11:45:46.640Z,21.28
2022-08-23T11:48:07.462Z,21.25
2022-08-23T11:50:28.197Z,21.32
2022-08-23T11:52:51.451Z,21.32
2022-08-23T11:55:18.640Z,21.33
2022-08-23T11:57:36.510Z,21.31
2022-08-23T11:59:55.371Z,21.33
2022-08-23T12:01:59.540Z,21.42
2022-08-23T12:04:11.337Z,21.48
2022-08-23T12:06:31.933Z,21.47
2022-08-23T12:08:58.202Z,21.34
2022-08-23T12:11:06.564Z,21.22
2022-08-23T12:13:33.339Z,21.08
2022-08-23T12:16:16.910Z,21.03
2022-08-23T12:18:25.046Z,21.11
2022-08-23T12:20:32.552Z,21.27
2022-08-23T12:22:58.419Z,21.45
2022-08-23T12:25:05.949Z,21.57
2022-08-23T12:27:28.018Z,21.66
2022-08-23T12:29:48.646Z,21.77
2022-08-23T12:32:00.003Z,21.91
2022-08-23T12:34:13.734Z,21.95
2022-08-23T12:36:23.079Z,22.04
2022-08-23T12:38:38.195Z,22.15
2022-08-23T12:40:44.064Z,22.19
2022-08-23T12:42:48.186Z,22.18
2022-08-23T12:45:03.799Z,22.16
2022-08-23T12:47:13.442Z,22.11
2022-08-23T12:49:27.428Z,22.05
2022-08-23T12:51:31.329Z,22.07
2022-08-23T12:53:42.648Z,22.07
2022-08-23T12:55:52.804Z,22.07
2022-08-23T12:57:58.548Z,22.03
2022-08-23T13:00:17.332Z,21.98
2022-08-23T13:02:26.948Z,21.94
2022-08-23T13:04:32.968Z,21.98
2022-08-23T13:06:42.609Z,22.01
2022-08-23T13:08:49.288Z,22.01
2022-08-23T13:10:54.058Z,22.01
2022-08-23T13:12:57.946Z,22.00
2022-08-23T13:15:03.054Z,22.04
2022-08-23T13:17:33.239Z,22.09
2022-08-23T13:19:36.799Z,22.11
2022-08-23T13:21:40.396Z,22.13
2022-08-23T13:23:44.339Z,22.13
2022-08-23T13:25:47.813Z,22.10
2022-08-23T13:27:55.424Z,22.08
2022-08-23T13:30:01.226Z,21.98
2022-08-23T13:32:06.854Z,21.91
2022-08-23T13:34:11.834Z,21.91
2022-08-23T13:36:17.842Z,21.89
2022-08-23T13:38:27.281Z,21.95
2022-08-23T13:40:33.517Z,21.98
2022-08-23T13:42:43.036Z,22.03
2022-08-23T13:44:46.728Z,22.13
2022-08-23T13:46:50.659Z,22.28
2022-08-23T13:49:01.324Z,22.41
2022-08-23T13:51:30.654Z,22.48
2022-08-23T13:53:34.221Z,22.47
2022-08-23T13:55:44.838Z,22.44
2022-08-23T13:57:48.635Z,22.41
2022-08-23T13:59:55.176Z,22.40
2022-08-23T14:02:01.621Z,22.44
2022-08-23T14:04:05.678Z,22.52
2022-08-23T14:06:11.074Z,22.59
2022-08-23T14:08:16.240Z,22.67
2022-08-23T14:10:21.931Z,22.69
2022-08-23T14:12:28.829Z,22.70
2022-08-23T14:14:36.280Z,22.65
2022-08-23T14:16:40.684Z,22.61
2022-08-23T14:21:08.419Z,22.55
2022-08-23T14:23:12.598Z,22.59
2022-08-23T14:25:17.758Z,22.62
2022-08-23T14:27:21.559Z,22.65
2022-08-23T14:29:28.614Z,22.67
2022-08-23T14:31:32.704Z,22.69
2022-08-23T14:33:36.232Z,22.74
2022-08-23T14:35:39.689Z,22.77
2022-08-23T14:40:09.536Z,22.76
2022-08-23T14:42:18.205Z,22.74
2022-08-23T14:44:21.813Z,22.72
2022-08-23T14:46:25.457Z,22.70
2022-08-23T14:48:29.662Z,22.71
2022-08-23T14:50:33.458Z,22.68
2022-08-23T14:52:38.435Z,22.63
2022-08-23T14:54:42.022Z,22.60
2022-08-23T14:56:45.912Z,22.59
2022-08-23T14:58:51.601Z,22.59
2022-08-23T15:00:55.344Z,22.59
2022-08-23T15:03:01.289Z,22.59
2022-08-23T15:05:06.493Z,22.60
2022-08-23T15:07:18.603Z,22.62
2022-08-23T15:09:22.883Z,22.64
2022-08-23T15:13:55.430Z,22.68
2022-08-23T15:16:01.376Z,22.70
2022-08-23T15:18:09.858Z,22.71
2022-08-23T15:20:13.519Z,22.70
2022-08-23T15:22:18.627Z,22.70
2022-08-23T15:24:25.523Z,22.72
2022-08-23T15:26:32.829Z,22.72
2022-08-23T15:28:36.660Z,22.72
2022-08-23T15:30:42.136Z,22.77
2022-08-23T15:32:52.731Z,22.80
2022-08-23T15:35:00.456Z,22.83
2022-08-23T15:37:04.220Z,22.86
2022-08-23T15:39:07.898Z,22.86
2022-08-23T15:41:12.445Z,22.86
2022-08-23T15:43:16.351Z,22.90
2022-08-23T15:45:20.025Z,22.94
2022-08-23T15:47:36.603Z,22.99
2022-08-23T15:49:40.431Z,23.00
2022-08-23T15:51:44.428Z,22.98
2022-08-23T15:53:48.698Z,22.98
2022-08-23T15:55:53.097Z,22.99
2022-08-23T15:57:58.957Z,23.00
2022-08-23T16:00:02.760Z,22.98
2022-08-23T16:02:15.585Z,22.94
2022-08-23T16:04:20.780Z,22.94
2022-08-23T16:06:24.430Z,22.92
2022-08-23T16:08:30.664Z,22.90
2022-08-23T16:10:34.748Z,22.87
2022-08-23T16:12:38.451Z,22.87
2022-08-23T16:14:42.031Z,22.87
2022-08-23T16:16:46.946Z,22.86
2022-08-23T16:18:53.423Z,22.88
2022-08-23T16:20:58.705Z,22.90
2022-08-23T16:23:02.433Z,22.94
2022-08-23T16:25:07.824Z,22.94
2022-08-23T16:27:11.946Z,22.92
2022-08-23T16:29:17.810Z,22.89
2022-08-23T16:31:21.976Z,22.89
2022-08-23T16:33:42.973Z,22.87
2022-08-23T16:35:46.740Z,22.90
2022-08-23T16:37:52.014Z,22.89
2022-08-23T16:39:55.880Z,22.89
2022-08-23T16:42:00.090Z,22.85
2022-08-23T16:44:03.834Z,22.82
2022-08-23T16:46:08.552Z,22.78
2022-08-23T16:48:14.851Z,22.75
2022-08-23T16:50:18.594Z,22.71
2022-08-23T16:52:28.765Z,22.67
2022-08-23T16:54:40.678Z,22.62
2022-08-23T16:56:44.340Z,22.57
2022-08-23T16:58:48.215Z,22.52
2022-08-23T17:00:51.981Z,22.46
2022-08-23T17:02:55.655Z,22.44
2022-08-23T17:04:59.711Z,22.42
2022-08-23T17:07:03.361Z,22.41
2022-08-23T17:09:07.610Z,22.39
2022-08-23T17:11:18.423Z,22.35
2022-08-23T17:13:22.871Z,22.35
2022-08-23T17:15:29.293Z,22.29
2022-08-23T17:17:33.229Z,22.26
2022-08-23T17:19:37.317Z,22.18
2022-08-23T17:21:42.295Z,22.12
2022-08-23T17:23:46.098Z,22.04
2022-08-23T17:25:49.992Z,22.01
2022-08-23T17:27:56.392Z,21.95
2022-08-23T17:30:00.425Z,21.92
2022-08-23T17:32:05.102Z,21.89
2022-08-23T17:34:09.264Z,21.84
2022-08-23T17:36:27.782Z,21.82
2022-08-23T17:38:31.711Z,21.80
2022-08-23T17:40:37.850Z,21.77
2022-08-23T17:42:42.072Z,21.75
2022-08-23T17:44:47.333Z,21.72
2022-08-23T17:46:52.351Z,21.68
2022-08-23T17:48:57.844Z,21.66
2022-08-23T17:51:01.769Z,21.63
2022-08-23T17:53:05.929Z,21.61
2022-08-23T17:55:10.882Z,21.58
2022-08-23T17:57:14.643Z,21.55
2022-08-23T17:59:20.390Z,21.55
2022-08-23T18:01:25.771Z,21.56
2022-08-23T18:03:30.872Z,21.58
2022-08-23T18:05:35.905Z,21.60
2022-08-23T18:07:40.340Z,21.59
2022-08-23T18:09:48.376Z,21.58
2022-08-23T18:11:52.897Z,21.59
2022-08-23T18:13:56.374Z,21.62
2022-08-23T18:16:00.470Z,21.66
2022-08-23T18:18:06.836Z,21.67
2022-08-23T18:20:13.220Z,21.67
2022-08-23T18:22:16.677Z,21.64
2022-08-23T18:24:20.920Z,21.60
2022-08-23T18:26:42.966Z,21.55
2022-08-23T18:28:46.713Z,21.51
2022-08-23T18:30:54.576Z,21.47
2022-08-23T18:32:58.795Z,21.43
2022-08-23T18:35:05.378Z,21.41
2022-08-23T18:37:09.269Z,21.38
2022-08-23T18:39:14.915Z,21.33
2022-08-23T18:41:18.939Z,21.28
2022-08-23T18:43:27.251Z,21.23
2022-08-23T18:45:41.155Z,21.21
2022-08-23T18:47:44.954Z,21.17
2022-08-23T18:49:48.942Z,21.13
2022-08-23T18:51:57.132Z,21.10
2022-08-23T18:54:01.136Z,21.09
2022-08-23T18:56:06.058Z,21.07
2022-08-23T18:58:09.886Z,21.03
2022-08-23T19:00:14.505Z,21.01
2022-08-23T19:02:18.455Z,20.99
2022-08-23T19:04:22.149Z,20.96
2022-08-23T19:06:25.856Z,20.94
2022-08-23T19:08:30.835Z,20.92
2022-08-23T19:10:35.162Z,20.90
2022-08-23T19:12:38.988Z,20.88
2022-08-23T19:14:56.225Z,20.87
2022-08-23T19:17:03.791Z,20.83
2022-08-23T19:19:07.953Z,20.81
2022-08-23T19:21:11.958Z,20.79
2022-08-23T19:23:15.660Z,20.76
2022-08-23T19:25:21.955Z,20.76
2022-08-23T19:27:25.517Z,20.74
2022-08-23T19:29:29.088Z,20.71
2022-08-23T19:31:37.182Z,20.69
2022-08-23T19:33:43.381Z,20.66
2022-08-23T19:35:47.244Z,20.62
2022-08-23T19:37:51.180Z,20.58
2022-08-23T19:39:54.792Z,20.54
2022-08-23T19:42:00.118Z,20.49
2022-08-23T19:44:03.929Z,20.46
2022-08-23T19:46:14.259Z,20.43
2022-08-23T19:48:19.376Z,20.41
2022-08-23T19:50:24.023Z,20.38
2022-08-23T19:52:28.376Z,20.36
2022-08-23T19:54:33.185Z,20.34
2022-08-23T19:56:39.947Z,20.33
2022-08-23T19:58:45.201Z,20.32
2022-08-23T20:00:48.840Z,20.33
2022-08-23T20:02:53.286Z,20.30
2022-08-23T20:04:58.197Z,20.28
2022-08-23T20:07:03.412Z,20.28
2022-08-23T20:09:08.749Z,20.28
2022-08-23T20:11:13.598Z,20.26
2022-08-23T20:13:17.425Z,20.24
2022-08-23T20:15:23.000Z,20.22
2022-08-23T20:17:27.794Z,20.21
2022-08-23T20:19:31.743Z,20.20
2022-08-23T20:21:35.873Z,20.19
2022-08-23T20:23:56.594Z,20.16
2022-08-23T20:26:00.286Z,20.12
2022-08-23T20:28:08.623Z,20.12
2022-08-23T20:30:15.113Z,20.10
2022-08-23T20:32:20.832Z,20.09
2022-08-23T20:34:26.497Z,20.08
2022-08-23T20:36:31.598Z,20.08
2022-08-23T20:38:36.295Z,20.08
2022-08-23T20:40:39.897Z,20.06
2022-08-23T20:42:43.432Z,20.02
2022-08-23T20:44:47.080Z,19.98
2022-08-23T20:46:54.347Z,19.97
2022-08-23T20:49:02.001Z,19.94
2022-08-23T20:51:08.238Z,19.94
2022-08-23T20:53:13.058Z,19.93
2022-08-23T20:55:16.694Z,19.89
2022-08-23T20:57:20.332Z,19.86
2022-08-23T20:59:24.120Z,19.82
2022-08-23T21:01:28.000Z,19.77
2022-08-23T21:03:31.884Z,19.75
2022-08-23T21:05:37.156Z,19.72
2022-08-23T21:07:41.947Z,19.70
2022-08-23T21:09:45.902Z,19.64
2022-08-23T21:11:49.851Z,19.55
2022-08-23T21:13:53.534Z,19.47
2022-08-23T21:15:57.198Z,19.33
2022-08-23T21:18:01.085Z,19.26
2022-08-23T21:20:06.131Z,19.15
2022-08-23T21:22:13.286Z,19.10
2022-08-23T21:24:17.295Z,19.06
2022-08-23T21:26:22.428Z,19.04
2022-08-23T21:28:27.313Z,19.03
2022-08-23T21:30:31.102Z,19.05
2022-08-23T21:32:34.781Z,19.05
2022-08-23T21:34:38.755Z,19.07
2022-08-23T21:36:42.277Z,19.06
2022-08-23T21:38:47.874Z,19.05
2022-08-23T21:40:58.439Z,19.03
2022-08-23T21:43:02.559Z,19.00
2022-08-23T21:45:07.925Z,18.96
2022-08-23T21:47:11.639Z,18.91
2022-08-23T21:49:16.242Z,18.88
2022-08-23T21:51:20.097Z,18.84
2022-08-23T21:53:23.662Z,18.75
2022-08-23T21:55:36.166Z,18.74
2022-08-23T21:57:41.529Z,18.75
2022-08-23T21:59:45.182Z,18.75
2022-08-23T22:01:48.987Z,18.76
2022-08-23T22:03:56.787Z,18.78
2022-08-23T22:06:00.659Z,18.82
2022-08-23T22:08:04.707Z,18.87
2022-08-23T22:10:10.507Z,18.87
2022-08-23T22:12:16.012Z,18.86
2022-08-23T22:14:22.167Z,18.84
2022-08-23T22:16:25.942Z,18.84
2022-08-23T22:18:29.705Z,18.82
2022-08-23T22:20:34.609Z,18.81
2022-08-23T22:22:38.711Z,18.82
2022-08-23T22:24:42.602Z,18.82
2022-08-23T22:26:46.899Z,18.86
2022-08-23T22:28:52.054Z,18.88
2022-08-23T22:30:59.068Z,18.90
2022-08-23T22:33:03.338Z,18.88
2022-08-23T22:35:09.008Z,18.86
2022-08-23T22:37:12.766Z,18.85
2022-08-23T22:39:16.316Z,18.84
2022-08-23T22:41:25.606Z,18.84
2022-08-23T22:43:29.357Z,18.85
2022-08-23T22:45:34.700Z,18.88
2022-08-23T22:47:38.275Z,18.85
2022-08-23T22:49:42.146Z,18.84
2022-08-23T22:51:45.816Z,18.82
2022-08-23T22:53:56.148Z,18.81
2022-08-23T22:56:00.057Z,18.78
2022-08-23T22:58:04.003Z,18.66
2022-08-23T23:00:09.681Z,18.62
2022-08-23T23:02:16.418Z,18.61
2022-08-23T23:04:22.384Z,18.56
2022-08-23T23:06:27.775Z,18.57
2022-08-23T23:08:30.351Z,18.60
2022-08-23T23:10:33.939Z,18.63
2022-08-23T23:12:37.583Z,18.64
2022-08-23T23:14:41.257Z,18.65
2022-08-23T23:16:49.354Z,18.65
2022-08-23T23:19:08.798Z,18.62
2022-08-23T23:21:13.212Z,18.61
2022-08-23T23:23:19.329Z,18.62
2022-08-23T23:25:23.295Z,18.63
2022-08-23T23:27:26.693Z,18.60
2022-08-23T23:29:31.029Z,18.59
2022-08-23T23:31:34.362Z,18.56
2022-08-23T23:33:37.585Z,18.54
2022-08-23T23:35:42.787Z,18.51
2022-08-23T23:37:49.463Z,18.48
2022-08-23T23:39:53.100Z,18.42
2022-08-23T23:41:56.673Z,18.37
2022-08-23T23:44:00.597Z,18.24
2022-08-23T23:46:06.353Z,18.00
2022-08-23T23:48:10.033Z,17.80
2022-08-23T23:50:14.264Z,17.61
2022-08-23T23:52:18.929Z,17.45
2022-08-23T23:54:22.167Z,17.32
2022-08-23T23:56:27.509Z,17.21
2022-08-23T23:58:30.823Z,17.13
